createdAt,value
2023-11-15T00:02:12.929Z,-0.05
2023-11-15T00:04:41.608Z,-0.13
2023-11-15T00:07:13.170Z,-0.13
2023-11-15T00:09:41.977Z,-0.09
2023-11-15T00:12:10.651Z,-0.14
2023-11-15T00:14:39.522Z,-0.08
2023-11-15T00:17:08.254Z,-0.07
2023-11-15T00:19:37.409Z,-0.29
2023-11-15T00:22:09.233Z,-0.12
2023-11-15T00:24:40.696Z,-0.14
2023-11-15T00:27:10.467Z,-0.11
2023-11-15T00:29:39.802Z,-0.15
2023-11-15T00:32:08.650Z,-0.20
2023-11-15T00:34:37.273Z,-0.20
2023-11-15T00:37:06.609Z,-0.40
2023-11-15T00:39:36.444Z,-0.22
2023-11-15T00:42:05.854Z,-0.23
2023-11-15T00:44:35.055Z,-0.21
2023-11-15T00:47:07.307Z,-0.29
2023-11-15T00:49:37.671Z,-0.23
2023-11-15T00:52:07.130Z,-0.25
2023-11-15T00:54:36.359Z,-0.29
2023-11-15T00:57:05.439Z,-0.24
2023-11-15T00:59:38.936Z,-0.28
2023-11-15T01:02:08.435Z,-0.32
2023-11-15T01:04:37.197Z,-0.34
2023-11-15T01:07:06.094Z,-0.36
2023-11-15T01:09:38.249Z,-0.35
2023-11-15T01:12:07.451Z,-0.37
2023-11-15T01:14:36.721Z,-0.35
2023-11-15T01:17:06.847Z,-0.35
2023-11-15T01:19:36.759Z,-0.32
2023-11-15T01:22:06.040Z,-0.54
2023-11-15T01:24:35.510Z,-0.37
2023-11-15T01:27:04.723Z,-0.57
2023-11-15T01:29:33.392Z,-0.53
2023-11-15T01:32:02.217Z,-0.32
2023-11-15T01:34:31.009Z,-0.36
2023-11-15T01:37:01.531Z,-0.41
2023-11-15T01:39:30.552Z,-0.36
2023-11-15T01:41:59.330Z,-0.43
2023-11-15T01:44:29.320Z,-0.51
2023-11-15T01:46:58.155Z,-0.50
2023-11-15T01:49:27.028Z,-0.50
2023-11-15T01:51:57.015Z,-0.43
2023-11-15T01:54:26.170Z,-0.52
2023-11-15T01:56:55.715Z,-0.48
2023-11-15T01:59:24.427Z,-0.51
2023-11-15T02:01:54.758Z,-0.51
2023-11-15T02:04:23.469Z,-0.47
2023-11-15T02:06:53.914Z,-0.50
2023-11-15T02:09:23.648Z,-0.80
2023-11-15T02:11:53.838Z,-0.54
2023-11-15T02:14:22.627Z,-0.53
2023-11-15T02:16:53.934Z,-0.53
2023-11-15T02:19:22.606Z,-0.53
2023-11-15T02:21:51.673Z,-0.47
2023-11-15T02:24:20.713Z,-0.44
2023-11-15T02:26:51.800Z,-0.50
2023-11-15T02:29:20.642Z,-0.54
2023-11-15T02:31:49.557Z,-0.52
2023-11-15T02:34:21.212Z,-0.53
2023-11-15T02:36:49.909Z,-0.55
2023-11-15T02:39:19.429Z,-0.52
2023-11-15T02:41:48.193Z,-0.48
2023-11-15T02:44:17.409Z,-0.57
2023-11-15T02:46:46.175Z,-0.46
2023-11-15T02:49:14.960Z,-0.46
2023-11-15T02:51:43.768Z,-0.65
2023-11-15T02:54:12.595Z,-0.48
2023-11-15T02:56:41.443Z,-0.48
2023-11-15T02:59:10.110Z,-0.46
2023-11-15T03:01:52.122Z,-0.43
2023-11-15T03:04:20.869Z,-0.40
2023-11-15T03:06:49.590Z,-0.40
2023-11-15T03:09:18.371Z,-0.43
2023-11-15T03:11:47.725Z,-0.42
2023-11-15T03:14:16.463Z,-0.34
2023-11-15T03:16:46.192Z,-0.37
2023-11-15T03:19:15.560Z,-0.35
2023-11-15T03:21:44.154Z,-0.37
2023-11-15T03:24:13.047Z,-0.34
2023-11-15T03:26:41.889Z,-0.28
2023-11-15T03:29:10.674Z,-0.36
2023-11-15T03:31:42.508Z,-0.33
2023-11-15T03:34:11.050Z,-0.32
2023-11-15T03:36:42.566Z,-0.35
2023-11-15T03:39:11.727Z,-0.21
2023-11-15T03:41:40.828Z,-0.17
2023-11-15T03:44:10.027Z,-0.11
2023-11-15T03:46:38.808Z,-0.09
2023-11-15T03:49:07.673Z,-0.08
2023-11-15T03:51:36.207Z,-0.03
2023-11-15T03:54:05.790Z,-0.21
2023-11-15T03:56:34.716Z,-0.02
2023-11-15T03:59:03.465Z,0.04
2023-11-15T04:01:34.153Z,0.07
2023-11-15T04:04:03.204Z,0.11
2023-11-15T04:06:32.093Z,0.16
2023-11-15T04:09:01.095Z,0.24
2023-11-15T04:11:36.730Z,0.33
2023-11-15T04:14:06.713Z,0.35
2023-11-15T04:16:35.704Z,0.41
2023-11-15T04:19:05.589Z,0.41
2023-11-15T04:21:34.837Z,0.50
2023-11-15T04:24:03.659Z,0.60
2023-11-15T04:26:32.244Z,0.61
2023-11-15T04:29:01.397Z,0.36
2023-11-15T04:31:30.010Z,0.69
2023-11-15T04:34:03.898Z,0.77
2023-11-15T04:36:37.117Z,0.77
2023-11-15T04:39:12.061Z,0.81
2023-11-15T04:41:40.970Z,0.88
2023-11-15T04:44:09.689Z,0.87
2023-11-15T04:46:38.533Z,0.88
2023-11-15T04:49:09.104Z,0.93
2023-11-15T04:51:38.416Z,1.00
2023-11-15T04:54:07.925Z,0.96
2023-11-15T04:56:36.973Z,0.81
2023-11-15T04:59:05.995Z,0.82
2023-11-15T05:01:35.263Z,1.05
2023-11-15T05:04:04.288Z,1.02
2023-11-15T05:06:33.328Z,1.00
2023-11-15T05:09:02.596Z,1.05
2023-11-15T05:11:31.505Z,1.07
2023-11-15T05:14:00.284Z,1.06
2023-11-15T05:16:30.495Z,1.14
2023-11-15T05:19:01.731Z,1.09
2023-11-15T05:21:30.655Z,1.12
2023-11-15T05:23:59.431Z,1.14
2023-11-15T05:26:28.583Z,1.17
2023-11-15T05:28:57.434Z,1.22
2023-11-15T05:31:26.340Z,1.24
2023-11-15T05:33:55.321Z,1.26
2023-11-15T05:36:24.344Z,1.22
2023-11-15T05:38:55.317Z,1.29
2023-11-15T05:41:29.216Z,1.31
2023-11-15T05:43:58.452Z,1.34
2023-11-15T05:46:27.819Z,1.42
2023-11-15T05:48:56.609Z,1.28
2023-11-15T05:51:25.609Z,1.54
2023-11-15T05:53:54.354Z,1.53
2023-11-15T05:56:23.870Z,1.35
2023-11-15T05:58:52.570Z,1.41
2023-11-15T06:01:22.548Z,1.57
2023-11-15T06:03:51.254Z,1.59
2023-11-15T06:06:20.227Z,1.59
2023-11-15T06:08:49.276Z,1.68
2023-11-15T06:11:18.295Z,1.73
2023-11-15T06:13:47.013Z,1.76
2023-11-15T06:16:16.451Z,1.78
2023-11-15T06:18:46.306Z,1.84
2023-11-15T06:21:15.538Z,1.85
2023-11-15T06:23:44.660Z,1.90
2023-11-15T06:26:14.228Z,1.90
2023-11-15T06:28:43.103Z,1.93
2023-11-15T06:31:11.712Z,2.01
2023-11-15T06:33:40.738Z,1.96
2023-11-15T06:36:10.304Z,2.03
2023-11-15T06:38:39.113Z,2.01
2023-11-15T06:41:10.589Z,2.02
2023-11-15T06:43:39.437Z,1.99
2023-11-15T06:46:08.132Z,2.07
2023-11-15T06:48:36.746Z,2.14
2023-11-15T06:51:06.900Z,2.15
2023-11-15T06:53:35.726Z,2.06
2023-11-15T06:56:05.468Z,2.14
2023-11-15T06:58:34.208Z,2.04
2023-11-15T07:01:02.937Z,2.24
2023-11-15T07:03:31.844Z,2.34
2023-11-15T07:06:00.682Z,2.35
2023-11-15T07:08:30.303Z,2.50
2023-11-15T07:11:01.993Z,2.52
2023-11-15T07:13:33.151Z,2.59
2023-11-15T07:16:04.039Z,2.64
2023-11-15T07:18:36.002Z,2.68
2023-11-15T07:21:04.982Z,2.73
2023-11-15T07:23:34.966Z,2.72
2023-11-15T07:26:03.790Z,2.73
2023-11-15T07:28:32.620Z,2.81
2023-11-15T07:31:01.654Z,2.75
2023-11-15T07:33:30.540Z,3.02
2023-11-15T07:35:59.305Z,3.09
2023-11-15T07:38:28.509Z,3.23
2023-11-15T07:40:57.426Z,3.22
2023-11-15T07:43:25.974Z,3.30
2023-11-15T07:45:56.013Z,3.14
2023-11-15T07:48:26.593Z,3.29
2023-11-15T07:50:56.454Z,3.40
2023-11-15T07:53:25.554Z,3.46
2023-11-15T07:55:54.157Z,3.46
2023-11-15T07:58:22.893Z,3.56
2023-11-15T08:00:52.714Z,3.52
2023-11-15T08:03:21.721Z,3.60
2023-11-15T08:05:51.682Z,3.60
2023-11-15T08:08:20.455Z,3.66
2023-11-15T08:10:50.373Z,3.66
2023-11-15T08:13:21.990Z,3.69
2023-11-15T08:15:53.602Z,3.75
2023-11-15T08:18:24.325Z,3.88
2023-11-15T08:20:53.677Z,3.85
2023-11-15T08:23:23.082Z,3.95
2023-11-15T08:25:53.804Z,3.95
2023-11-15T08:28:22.802Z,4.05
2023-11-15T08:30:51.305Z,4.13
2023-11-15T08:33:20.224Z,4.13
2023-11-15T08:35:49.575Z,4.10
2023-11-15T08:38:26.542Z,4.13
2023-11-15T08:40:57.708Z,4.12
2023-11-15T08:43:26.908Z,4.18
2023-11-15T08:45:59.324Z,4.19
2023-11-15T08:48:29.169Z,4.16
2023-11-15T08:50:57.958Z,4.24
2023-11-15T08:53:27.683Z,4.26
2023-11-15T08:55:57.581Z,4.33
2023-11-15T08:58:32.292Z,4.21
2023-11-15T09:01:04.069Z,4.36
2023-11-15T09:03:32.979Z,4.43
2023-11-15T09:06:02.784Z,4.45
2023-11-15T09:08:33.051Z,4.36
2023-11-15T09:11:01.994Z,4.33
2023-11-15T09:13:30.941Z,4.40
2023-11-15T09:16:01.131Z,4.40
2023-11-15T09:18:30.023Z,4.35
2023-11-15T09:21:00.240Z,4.33
2023-11-15T09:23:31.441Z,4.31
2023-11-15T09:26:00.835Z,4.33
2023-11-15T09:28:30.201Z,4.28
2023-11-15T09:30:59.177Z,4.28
2023-11-15T09:33:30.935Z,4.26
2023-11-15T09:36:01.695Z,4.19
2023-11-15T09:38:30.827Z,4.18
2023-11-15T09:41:02.099Z,4.13
2023-11-15T09:43:31.001Z,4.04
2023-11-15T09:46:10.568Z,4.02
2023-11-15T09:48:53.476Z,3.98
2023-11-15T09:51:31.724Z,3.93
2023-11-15T09:54:12.809Z,3.91
2023-11-15T09:56:47.497Z,3.91
2023-11-15T09:59:17.828Z,3.93
2023-11-15T10:01:48.227Z,3.92
2023-11-15T10:04:28.201Z,3.89
2023-11-15T10:07:03.911Z,3.86
2023-11-15T10:09:41.457Z,3.88
2023-11-15T10:12:12.386Z,3.91
2023-11-15T10:14:54.974Z,3.79
2023-11-15T10:17:44.810Z,3.83
2023-11-15T10:20:24.666Z,3.81
2023-11-15T10:22:55.257Z,3.75
2023-11-15T10:25:28.034Z,3.74
2023-11-15T10:28:05.372Z,3.69
2023-11-15T10:30:34.644Z,3.72
2023-11-15T10:33:13.544Z,3.70
2023-11-15T10:35:45.218Z,3.65
2023-11-15T10:38:25.367Z,3.64
2023-11-15T10:40:55.414Z,3.59
2023-11-15T10:43:25.441Z,3.41
2023-11-15T10:45:58.658Z,3.55
2023-11-15T10:48:34.858Z,3.59
2023-11-15T10:51:09.023Z,3.55
2023-11-15T10:53:38.467Z,3.44
2023-11-15T10:56:08.184Z,3.40
2023-11-15T10:58:37.505Z,3.48
2023-11-15T11:01:08.437Z,3.48
2023-11-15T11:03:41.519Z,3.45
2023-11-15T11:06:21.355Z,3.51
2023-11-15T11:09:23.430Z,3.51
2023-11-15T11:12:01.737Z,3.45
2023-11-15T11:14:32.322Z,3.38
2023-11-15T11:17:01.854Z,3.26
2023-11-15T11:19:31.580Z,3.48
2023-11-15T11:22:03.705Z,3.48
2023-11-15T11:24:36.658Z,3.27
2023-11-15T11:27:15.962Z,3.45
2023-11-15T11:29:53.431Z,3.45
2023-11-15T11:32:28.951Z,3.43
2023-11-15T11:35:06.963Z,3.47
2023-11-15T11:37:49.323Z,3.42
2023-11-15T11:40:26.807Z,3.37
2023-11-15T11:42:55.637Z,3.35
2023-11-15T11:45:32.047Z,3.35
2023-11-15T11:48:01.545Z,3.35
2023-11-15T11:50:30.286Z,3.37
2023-11-15T11:53:01.563Z,3.46
2023-11-15T11:55:34.206Z,3.44
2023-11-15T11:58:05.590Z,3.46
2023-11-15T12:00:35.622Z,3.52
2023-11-15T12:03:06.247Z,3.55
2023-11-15T12:05:39.953Z,3.58
2023-11-15T12:08:10.305Z,3.64
2023-11-15T12:10:44.226Z,3.62
2023-11-15T12:13:13.170Z,3.66
2023-11-15T12:15:42.122Z,3.62
2023-11-15T12:18:17.927Z,3.68
2023-11-15T12:20:49.266Z,3.53
2023-11-15T12:23:21.955Z,3.73
2023-11-15T12:25:56.446Z,3.73
2023-11-15T12:28:32.894Z,3.72
2023-11-15T12:31:05.883Z,3.80
2023-11-15T12:33:37.852Z,3.95
2023-11-15T12:36:08.338Z,3.99
2023-11-15T12:38:37.434Z,3.99
2023-11-15T12:41:07.899Z,4.00
2023-11-15T12:43:37.374Z,4.07
2023-11-15T12:46:21.738Z,4.09
2023-11-15T12:48:52.623Z,4.07
2023-11-15T12:51:21.516Z,4.15
2023-11-15T12:53:50.354Z,4.21
2023-11-15T12:56:21.046Z,4.24
2023-11-15T12:58:50.365Z,4.29
2023-11-15T13:01:20.934Z,4.36
2023-11-15T13:03:57.994Z,4.45
2023-11-15T13:06:30.674Z,4.43
2023-11-15T13:09:04.410Z,4.47
2023-11-15T13:11:33.365Z,4.47
2023-11-15T13:14:02.205Z,4.49
2023-11-15T13:16:32.148Z,4.46
2023-11-15T13:19:01.258Z,4.56
2023-11-15T13:21:31.784Z,4.52
2023-11-15T13:24:00.619Z,4.55
2023-11-15T13:26:29.426Z,4.57
2023-11-15T13:28:58.098Z,4.53
2023-11-15T13:31:26.918Z,4.60
2023-11-15T13:33:57.468Z,4.60
2023-11-15T13:36:27.240Z,4.72
2023-11-15T13:38:55.969Z,4.69
2023-11-15T13:41:26.702Z,4.73
2023-11-15T13:43:55.814Z,4.69
2023-11-15T13:46:25.408Z,4.74
2023-11-15T13:48:55.019Z,4.69
2023-11-15T13:51:24.362Z,4.51
2023-11-15T13:53:53.364Z,4.65
2023-11-15T13:56:22.402Z,4.62
2023-11-15T13:58:51.467Z,4.63
2023-11-15T14:01:20.168Z,4.60
2023-11-15T14:03:49.405Z,4.61
2023-11-15T14:06:18.008Z,4.59
2023-11-15T14:08:55.536Z,4.58
2023-11-15T14:11:31.083Z,4.53
2023-11-15T14:13:59.826Z,4.54
2023-11-15T14:16:29.378Z,4.36
2023-11-15T14:18:58.455Z,4.53
2023-11-15T14:21:27.306Z,4.50
2023-11-15T14:23:58.141Z,4.47
2023-11-15T14:26:27.552Z,4.49
2023-11-15T14:28:56.425Z,4.44
2023-11-15T14:31:25.150Z,4.44
2023-11-15T14:33:53.800Z,4.37
2023-11-15T14:36:23.027Z,4.43
2023-11-15T14:38:53.229Z,4.38
2023-11-15T14:41:24.963Z,4.43
2023-11-15T14:43:55.126Z,4.49
2023-11-15T14:46:27.509Z,4.46
2023-11-15T14:48:56.245Z,4.43
2023-11-15T14:51:25.741Z,4.49
2023-11-15T14:53:57.543Z,4.50
2023-11-15T14:56:29.520Z,4.50
2023-11-15T14:59:00.282Z,4.47
2023-11-15T15:01:29.480Z,4.43
2023-11-15T15:03:59.085Z,4.42
2023-11-15T15:06:27.988Z,4.47
2023-11-15T15:08:56.900Z,4.36
2023-11-15T15:11:26.608Z,4.40
2023-11-15T15:13:55.532Z,4.28
2023-11-15T15:16:24.544Z,4.28
2023-11-15T15:18:53.365Z,4.24
2023-11-15T15:21:22.302Z,4.25
2023-11-15T15:23:50.913Z,4.24
2023-11-15T15:26:22.422Z,4.24
2023-11-15T15:28:53.462Z,4.26
2023-11-15T15:31:22.582Z,4.26
2023-11-15T15:33:51.409Z,4.26
2023-11-15T15:36:22.443Z,4.25
2023-11-15T15:38:52.835Z,4.24
2023-11-15T15:41:22.276Z,4.24
2023-11-15T15:43:53.859Z,4.20
2023-11-15T15:46:23.981Z,4.15
2023-11-15T15:48:53.149Z,4.15
2023-11-15T15:51:25.863Z,4.15
2023-11-15T15:53:54.831Z,4.14
2023-11-15T15:56:25.724Z,4.14
2023-11-15T15:58:55.005Z,4.11
2023-11-15T16:01:29.777Z,3.98
2023-11-15T16:03:58.685Z,4.12
2023-11-15T16:06:27.420Z,4.12
2023-11-15T16:08:56.368Z,4.12
2023-11-15T16:11:25.012Z,4.08
2023-11-15T16:13:53.786Z,4.13
2023-11-15T16:16:22.647Z,4.12
2023-11-15T16:18:52.820Z,4.11
2023-11-15T16:21:21.478Z,4.05
2023-11-15T16:23:58.633Z,3.99
2023-11-15T16:26:28.323Z,4.04
2023-11-15T16:28:57.668Z,3.96
2023-11-15T16:31:27.794Z,4.01
2023-11-15T16:33:58.203Z,3.94
2023-11-15T16:36:29.273Z,3.90
2023-11-15T16:38:58.368Z,3.92
2023-11-15T16:41:26.967Z,3.74
2023-11-15T16:43:55.785Z,3.90
2023-11-15T16:46:24.608Z,3.91
2023-11-15T16:48:53.216Z,3.93
2023-11-15T16:51:22.113Z,3.87
2023-11-15T16:53:51.149Z,3.86
2023-11-15T16:56:19.787Z,3.88
2023-11-15T16:58:48.823Z,3.89
2023-11-15T17:01:19.860Z,3.77
2023-11-15T17:03:48.737Z,3.89
2023-11-15T17:06:17.481Z,3.75
2023-11-15T17:08:48.986Z,3.77
2023-11-15T17:11:19.711Z,3.66
2023-11-15T17:13:50.986Z,3.87
2023-11-15T17:16:21.930Z,3.83
2023-11-15T17:18:50.785Z,3.77
2023-11-15T17:21:25.457Z,3.81
2023-11-15T17:23:55.864Z,3.86
2023-11-15T17:26:25.202Z,3.76
2023-11-15T17:28:54.227Z,3.77
2023-11-15T17:31:30.234Z,3.73
2023-11-15T17:33:59.267Z,3.81
2023-11-15T17:36:30.231Z,3.76
2023-11-15T17:39:00.678Z,3.77
2023-11-15T17:41:29.248Z,3.74
2023-11-15T17:43:58.007Z,3.68
2023-11-15T17:46:27.485Z,3.66
2023-11-15T17:48:57.955Z,3.37
2023-11-15T17:51:27.439Z,3.65
2023-11-15T17:53:56.928Z,3.67
2023-11-15T17:56:25.514Z,3.60
2023-11-15T17:58:54.726Z,3.61
2023-11-15T18:01:23.572Z,3.59
2023-11-15T18:03:52.492Z,3.56
2023-11-15T18:06:24.334Z,3.57
2023-11-15T18:08:53.630Z,3.53
2023-11-15T18:11:24.407Z,3.55
2023-11-15T18:13:54.584Z,3.54
2023-11-15T18:16:24.631Z,3.30
2023-11-15T18:18:56.457Z,3.48
2023-11-15T18:21:25.306Z,3.46
2023-11-15T18:23:54.786Z,3.38
2023-11-15T18:26:26.447Z,3.35
2023-11-15T18:28:55.188Z,3.31
2023-11-15T18:31:24.845Z,3.01
2023-11-15T18:33:54.105Z,3.30
2023-11-15T18:36:26.285Z,3.27
2023-11-15T18:38:55.174Z,3.22
2023-11-15T18:41:23.749Z,3.26
2023-11-15T18:43:54.069Z,3.22
2023-11-15T18:46:24.963Z,3.17
2023-11-15T18:48:53.501Z,3.18
2023-11-15T18:51:26.422Z,3.17
2023-11-15T18:53:56.985Z,3.19
2023-11-15T18:56:25.593Z,3.11
2023-11-15T18:58:54.674Z,3.19
2023-11-15T19:01:23.565Z,3.05
2023-11-15T19:03:53.545Z,3.26
2023-11-15T19:06:23.507Z,3.26
2023-11-15T19:08:55.821Z,3.25
2023-11-15T19:11:24.974Z,3.27
2023-11-15T19:13:59.684Z,3.27
2023-11-15T19:16:30.630Z,3.31
2023-11-15T19:19:00.046Z,3.25
2023-11-15T19:21:29.259Z,3.29
2023-11-15T19:23:58.625Z,3.38
2023-11-15T19:26:30.285Z,3.40
2023-11-15T19:28:59.462Z,3.25
2023-11-15T19:31:30.763Z,3.40
2023-11-15T19:34:01.521Z,3.45
2023-11-15T19:36:30.415Z,3.47
2023-11-15T19:38:59.323Z,3.36
2023-11-15T19:41:28.234Z,3.43
2023-11-15T19:43:59.933Z,3.39
2023-11-15T19:46:29.454Z,3.42
2023-11-15T19:48:58.251Z,3.32
2023-11-15T19:51:37.542Z,3.31
2023-11-15T19:54:11.250Z,3.29
2023-11-15T19:56:40.363Z,2.98
2023-11-15T19:59:10.119Z,3.10
2023-11-15T20:01:39.607Z,3.27
2023-11-15T20:04:09.466Z,3.26
2023-11-15T20:06:38.978Z,2.93
2023-11-15T20:09:08.211Z,3.18
2023-11-15T20:11:39.823Z,3.16
2023-11-15T20:14:08.950Z,3.22
2023-11-15T20:16:37.880Z,3.23
2023-11-15T20:19:07.779Z,3.22
2023-11-15T20:21:38.078Z,3.17
2023-11-15T20:24:08.154Z,3.20
2023-11-15T20:26:38.689Z,3.18
2023-11-15T20:29:12.146Z,3.24
2023-11-15T20:31:41.389Z,3.18
2023-11-15T20:34:11.082Z,3.19
2023-11-15T20:36:43.315Z,3.23
2023-11-15T20:39:24.369Z,3.16
2023-11-15T20:41:59.670Z,3.13
2023-11-15T20:44:29.960Z,3.05
2023-11-15T20:47:00.414Z,3.11
2023-11-15T20:49:36.780Z,3.07
2023-11-15T20:52:08.878Z,3.03
2023-11-15T20:54:37.904Z,3.00
2023-11-15T20:57:07.349Z,3.04
2023-11-15T20:59:36.319Z,3.01
2023-11-15T21:02:08.410Z,3.07
2023-11-15T21:04:38.536Z,2.99
2023-11-15T21:07:07.637Z,2.97
2023-11-15T21:09:37.245Z,2.97
2023-11-15T21:12:07.068Z,2.93
2023-11-15T21:14:37.768Z,2.99
2023-11-15T21:17:07.392Z,2.81
2023-11-15T21:19:36.201Z,3.00
2023-11-15T21:22:06.059Z,2.91
2023-11-15T21:24:35.220Z,2.80
2023-11-15T21:27:05.419Z,2.95
2023-11-15T21:29:35.199Z,2.96
2023-11-15T21:32:09.199Z,2.89
2023-11-15T21:34:40.713Z,2.97
2023-11-15T21:37:16.437Z,2.95
2023-11-15T21:39:47.879Z,2.99
2023-11-15T21:42:17.681Z,2.98
2023-11-15T21:44:47.388Z,2.98
2023-11-15T21:47:20.491Z,3.00
2023-11-15T21:49:49.487Z,2.97
2023-11-15T21:52:18.014Z,2.97
2023-11-15T21:54:48.165Z,2.99
2023-11-15T21:57:17.000Z,2.87
2023-11-15T21:59:46.179Z,3.03
2023-11-15T22:02:14.902Z,3.03
2023-11-15T22:04:45.875Z,3.08
2023-11-15T22:07:15.003Z,3.08
2023-11-15T22:09:43.846Z,3.08
2023-11-15T22:12:12.875Z,3.14
2023-11-15T22:14:42.439Z,3.09
2023-11-15T22:17:12.112Z,3.16
2023-11-15T22:19:41.020Z,3.17
2023-11-15T22:22:09.702Z,3.18
2023-11-15T22:24:38.527Z,3.17
2023-11-15T22:27:07.805Z,2.99
2023-11-15T22:29:36.719Z,3.18
2023-11-15T22:32:05.579Z,3.18
2023-11-15T22:34:35.161Z,3.22
2023-11-15T22:37:04.178Z,3.22
2023-11-15T22:39:32.809Z,3.25
2023-11-15T22:42:01.673Z,3.27
2023-11-15T22:44:30.790Z,3.28
2023-11-15T22:46:59.717Z,3.14
2023-11-15T22:49:28.461Z,3.36
2023-11-15T22:51:57.518Z,3.29
2023-11-15T22:54:26.333Z,3.26
2023-11-15T22:56:55.181Z,3.31
2023-11-15T22:59:23.884Z,3.36
2023-11-15T23:01:52.813Z,3.39
2023-11-15T23:04:21.949Z,3.35
2023-11-15T23:06:55.781Z,3.17
2023-11-15T23:09:24.665Z,3.28
2023-11-15T23:11:53.671Z,3.31
2023-11-15T23:14:22.583Z,3.27
2023-11-15T23:16:51.363Z,3.13
2023-11-15T23:19:20.443Z,3.29
2023-11-15T23:21:58.837Z,3.10
2023-11-15T23:24:32.347Z,3.27
2023-11-15T23:27:01.375Z,3.25
2023-11-15T23:29:31.308Z,3.20
2023-11-15T23:32:01.730Z,3.18
2023-11-15T23:34:30.542Z,3.21
2023-11-15T23:36:59.642Z,3.16
2023-11-15T23:39:28.752Z,3.07
2023-11-15T23:41:57.856Z,3.16
2023-11-15T23:44:29.199Z,3.12
2023-11-15T23:46:58.790Z,3.10
2023-11-15T23:49:27.888Z,3.13
2023-11-15T23:51:56.700Z,3.14
2023-11-15T23:54:25.587Z,3.04
2023-11-15T23:56:56.860Z,3.01
2023-11-15T23:59:26.043Z,2.85
